Bei Facebook empfehlenBei Twitter postenGoogle plusPinterest

Das Wetter im Erzgebirge am 25.04.2015

Wetter und Klima am 25.04.2015 Holzhau im Erzgebirge (630m ü.NN)
Letzte gemessene Temperatur und Uhrzeit der Messung23:45:00 Uhr11.60 °C
Temperatur (Maximum / Höchstwert) und Uhrzeit der Messung14:30:00 Uhr19.90 °C
Temperatur (Minimum / Tiefstwert) und Uhrzeit der Messung05:00:001.00 °C
Errechneter Absolutwert der Temperaturschwankungen zwischen Tmin und Tmax des Tages18.90 K
Errechnete Tagesmitteltemperatur10.90833 °C
Gesamt - Niederschlag des Tages (in flüssiger Form)0.00 Liter / m²
Luftdruck (Maximum / Höchstwert) und Zeitpunkt der Messung00:45:00 Uhr1011.60 hPa
Luftdruck (Minimum / Tiefstwert) und Zeitpunkt der Messung19:30:00 Uhr1007.60 hPa
Errechneter Absolutwert der Luftdruckschwankungen des Tages4.00 hPa
Höchste gemessene Windgeschwindigkeit und Uhrzeit der Messung15:00:00 Uhr10.08 km/h
Errechnete Windhäufigkeit in Relation zu den Messwerten des Tages15.62500 %
Niedrigste Windkühle (Windchill) und Zeitpunkt der Messung03:45:00 Uhr0.10 °C
Taupunkt (Maximum / Höchstwert) und Uhrzeit der Messung23:15:00 Uhr7.70 °C
Taupunkt (Minimum / Tiefstwert) und Uhrzeit der Messung05:00:00-0.60 °C
Anzahl der automatisch eingelesenen Messwerte 96

Detaillierte Wetter- und Klima- Messwerte für den 25.04.2015 in Holzhau im Erzgebirge (630m ü.NN)
ZeitTemperaturLuftdruckRel. LuftfeuchteWindWindrichtungWindchillTaupunktNiederschlag l/m²
23:45:0011.60 °C1008.30 hPa76.00 %7.50 °C 
23:30:0011.70 °C1008.30 hPa76.00 %7.60 °C 
23:15:0011.80 °C1008.40 hPa76.00 %7.70 °C 
23:00:0011.60 °C1008.40 hPa77.00 %7.70 °C 
22:45:0011.20 °C1008.40 hPa78.00 %7.50 °C 
22:30:0010.80 °C1008.30 hPa76.00 %3.96 km/hSW10.80 °C6.70 °C 
22:15:0011.30 °C1008.30 hPa74.00 %6.80 °C 
22:00:0011.90 °C1008.40 hPa71.00 %6.80 °C 
21:45:0012.30 °C1008.40 hPa69.00 %6.80 °C 
21:30:0012.10 °C1008.30 hPa70.00 %6.80 °C 
21:15:0011.60 °C1008.30 hPa71.00 %6.50 °C 
21:00:0011.40 °C1008.20 hPa71.00 %6.30 °C 
20:45:0011.70 °C1008.20 hPa70.00 %6.40 °C 
20:30:0012.10 °C1008.00 hPa67.00 %6.20 °C 
20:15:0012.60 °C1007.90 hPa65.00 %6.20 °C 
20:00:0013.10 °C1007.80 hPa63.00 %6.20 °C 
19:45:0013.60 °C1007.80 hPa60.00 %6.00 °C 
19:30:0014.10 °C1007.60 hPa58.00 %6.00 °C 
19:15:0014.70 °C1007.60 hPa56.00 %6.00 °C 
19:00:0015.20 °C1007.70 hPa54.00 %6.00 °C 
18:45:0015.40 °C1007.70 hPa54.00 %6.10 °C 
18:30:0015.60 °C1007.70 hPa53.00 %6.10 °C 
18:15:0015.80 °C1007.60 hPa52.00 %6.00 °C 
18:00:0015.40 °C1007.80 hPa52.00 %5.60 °C 
17:45:0015.30 °C1007.80 hPa50.00 %4.90 °C 
17:30:0015.30 °C1008.10 hPa50.00 %4.90 °C 
17:15:0015.60 °C1007.90 hPa48.00 %4.60 °C 
17:00:0016.20 °C1008.00 hPa44.00 %3.90 °C 
16:45:0016.90 °C1007.80 hPa42.00 %3.90 °C 
16:30:0017.20 °C1007.80 hPa44.00 %4.90 °C 
16:15:0017.40 °C1007.80 hPa43.00 %4.70 °C 
16:00:0017.40 °C1007.90 hPa42.00 %1.44 km/hNW17.40 °C4.40 °C 
15:45:0017.90 °C1008.20 hPa41.00 %7.20 km/hSSW18.40 °C4.50 °C 
15:30:0018.80 °C1008.20 hPa41.00 %6.12 km/hSSW19.60 °C5.30 °C 
15:15:0018.80 °C1008.20 hPa43.00 %6.00 °C 
15:00:0019.20 °C1008.40 hPa44.00 %10.08 km/hSW19.60 °C6.70 °C 
14:45:0019.50 °C1008.60 hPa43.00 %6.60 °C 
14:30:0019.90 °C1008.70 hPa42.00 %7.20 km/hSO20.70 °C6.60 °C 
14:15:0019.50 °C1008.90 hPa43.00 %6.60 °C 
14:00:0019.10 °C1009.00 hPa43.00 %9.72 km/hSSW19.50 °C6.20 °C 
13:45:0018.90 °C1009.00 hPa43.00 %6.10 °C 
13:30:0018.90 °C1009.10 hPa43.00 %6.10 °C 
13:15:0018.60 °C1009.20 hPa43.00 %5.80 °C 
13:00:0018.50 °C1009.20 hPa43.00 %3.96 km/hSSW18.50 °C5.70 °C 
12:45:0018.30 °C1009.50 hPa43.00 %9.00 km/hSW18.60 °C5.50 °C 
12:30:0018.20 °C1009.60 hPa42.00 %5.10 °C 
12:15:0018.20 °C1009.80 hPa43.00 %5.40 °C 
12:00:0018.10 °C1009.80 hPa42.00 %5.00 °C 
11:45:0018.00 °C1009.90 hPa44.00 %6.12 km/hS18.70 °C5.60 °C 
11:30:0017.90 °C1010.10 hPa45.00 %9.72 km/hSSW18.10 °C5.80 °C 
11:15:0018.10 °C1009.90 hPa45.00 %3.24 km/hSSW18.10 °C6.00 °C 
11:00:0017.90 °C1009.90 hPa46.00 %6.10 °C 
10:45:0017.40 °C1009.90 hPa45.00 %5.40 °C 
10:30:0017.30 °C1010.00 hPa45.00 %5.30 °C 
10:15:0017.50 °C1009.90 hPa48.00 %3.60 km/hSSO17.50 °C6.40 °C 
10:00:0017.10 °C1010.00 hPa51.00 %9.36 km/hSSW17.20 °C6.90 °C 
09:45:0016.20 °C1010.00 hPa56.00 %7.40 °C 
09:30:0015.10 °C1010.20 hPa61.00 %7.60 °C 
09:15:0013.50 °C1010.10 hPa68.00 %7.70 °C 
09:00:0011.60 °C1010.10 hPa76.00 %7.50 °C 
08:45:0010.40 °C1010.10 hPa79.00 %6.90 °C 
08:30:009.10 °C1010.00 hPa80.00 %5.80 °C 
08:15:007.90 °C1010.10 hPa81.00 %4.80 °C 
08:00:006.90 °C1010.20 hPa82.00 %4.00 °C 
07:45:005.80 °C1010.30 hPa85.00 %3.50 °C 
07:30:004.20 °C1010.10 hPa88.00 %2.40 °C 
07:15:002.60 °C1010.30 hPa89.00 %1.00 °C 
07:00:001.90 °C1010.40 hPa89.00 %0.30 °C 
06:45:001.50 °C1010.40 hPa90.00 %0.00 °C 
06:30:001.10 °C1010.40 hPa89.00 %-0.50 °C 
06:15:001.10 °C1010.20 hPa89.00 %-0.50 °C 
06:00:001.20 °C1010.30 hPa89.00 %-0.40 °C 
05:45:001.10 °C1010.20 hPa89.00 %-0.50 °C 
05:30:001.20 °C1010.40 hPa89.00 %-0.40 °C 
05:15:001.10 °C1010.50 hPa89.00 %-0.50 °C 
05:00:001.00 °C1010.60 hPa89.00 %-0.60 °C 
04:45:001.20 °C1010.50 hPa88.00 %-0.60 °C 
04:30:001.40 °C1010.60 hPa89.00 %-0.20 °C 
04:15:001.40 °C1010.40 hPa88.00 %-0.40 °C 
04:00:001.60 °C1010.50 hPa88.00 %-0.20 °C 
03:45:001.80 °C1010.60 hPa88.00 %5.76 km/hOSO0.10 °C0.00 °C 
03:30:001.80 °C1010.70 hPa88.00 %0.00 °C 
03:15:001.80 °C1010.90 hPa87.00 %-0.10 °C 
03:00:002.10 °C1011.00 hPa87.00 %0.20 °C 
02:45:002.40 °C1011.00 hPa87.00 %0.50 °C 
02:30:002.90 °C1011.10 hPa87.00 %1.00 °C 
02:15:003.20 °C1011.00 hPa88.00 %1.40 °C 
02:00:002.80 °C1011.10 hPa88.00 %1.00 °C 
01:45:002.60 °C1011.20 hPa87.00 %0.70 °C 
01:30:002.70 °C1011.20 hPa86.00 %0.60 °C 
01:15:002.90 °C1011.40 hPa86.00 %0.80 °C 
01:00:003.20 °C1011.50 hPa86.00 %1.10 °C 
00:45:003.50 °C1011.60 hPa85.00 %1.20 °C 
00:30:003.90 °C1011.50 hPa85.00 %1.60 °C 
00:15:003.90 °C1011.40 hPa85.00 %1.60 °C 
00:00:004.10 °C1011.60 hPa85.00 %1.80 °C 

Permanenter Link zu dieser Seite: Wetter im Erzgebirge am 25.04.2015
Performance-Info: Die Erstellung der Seite / Statistik(en) / Tabelle(n) erforderte 5 Datenbankserver-Abfrage(n) und dauerte 101 Millisekunden. (Dieser Messwert ist von der Gesamt-Auslastung des Servers abhängig.)
Erzgebirge - Wetter | Erzgebirge - Wetter (Mobilgeräte) | Komplette Klimadatenbank